Puget — AEQW — position and weather

sailwx.info

Track history (hours):
 
Tides and Currents Weather Stations Pressure Air Temp Water Temp Dewpoint Dewpoint Depression Visibility Wind Speed Wind Dir Waves Ship Positions

Puget

Last reported at 2014-Nov-26 19:05 UTC. Time now 2014-Nov-27 14:29 UTC.
Position N 47°33' W 122°20'.

Length 20 m; draft 0.2 m.

Type: Ship. MMSI: 369970510.

Date/timePositionNaut miles runAvg speedWind from/ knotsBaromVisibWave heightAir tempDewpointWater temp
2014-Nov-26 19:05N 47°33' W 122°20'2 4.3
2014-Nov-26 18:34N 47°35' W 122°22'7 6.8
2014-Nov-26 17:33N 47°29' W 122°23'9 8.6
2014-Nov-26 16:34N 47°20' W 122°24'3 0.2
2014-Nov-26 00:33N 47°18' W 122°26'1 0.9
2014-Nov-25 23:33N 47°18' W 122°27'0 0.3
2014-Nov-25 22:33N 47°18' W 122°26'0 0.1
2014-Nov-25 21:33N 47°18' W 122°26'4 4.1
2014-Nov-25 20:33N 47°18' W 122°32'3 2.7
2014-Nov-25 19:33N 47°20' W 122°30'3 3.1
2014-Nov-25 18:33N 47°20' W 122°25'4 4.4
2014-Nov-25 17:33N 47°16' W 122°23'1 0.6
2014-Nov-25 16:33N 47°16' W 122°22'2 0.1
2014-Nov-24 23:16N 47°17' W 122°25'3 4.7
2014-Nov-24 22:33N 47°18' W 122°29'3 3.4
2014-Nov-24 21:33N 47°20' W 122°33'6 6.0
2014-Nov-24 20:33N 47°26' W 122°32'5 5.2
2014-Nov-24 19:33N 47°31' W 122°27'7 7.1
2014-Nov-24 18:33N 47°25' W 122°21'5 5.3
2014-Nov-24 17:33N 47°20' W 122°25'3 2.9
2014-Nov-24 16:33N 47°17' W 122°25'  
2014-Nov-20 17:33N 47°16' W 122°26'0 0.4
2014-Nov-20 16:34N 47°15' W 122°26'2 0.1
2014-Nov-19 23:09N 47°17' W 122°25'1 0.9
2014-Nov-19 22:33N 47°16' W 122°24'1 0.7
2014-Nov-19 21:29N 47°17' W 122°23'0 0.1
2014-Nov-19 20:32N 47°17' W 122°23'2 1.8
2014-Nov-19 19:33N 47°18' W 122°26'3 3.0
2014-Nov-19 18:33N 47°21' W 122°27'3 2.6
2014-Nov-19 17:33N 47°21' W 122°23'4 0.2
2014-Nov-19 00:33N 47°17' W 122°25'2 1.9
2014-Nov-18 23:33N 47°15' W 122°26'5 4.5
2014-Nov-18 22:33N 47°19' W 122°30'5 4.9
2014-Nov-18 21:33N 47°15' W 122°34'7 6.4
2014-Nov-18 20:30N 47°09' W 122°38'0 0.0
2014-Nov-18 19:33N 47°09' W 122°38'7 7.1
2014-Nov-18 18:34N 47°15' W 122°34'4 4.3
2014-Nov-18 17:33N 47°18' W 122°29'3 3.1
2014-Nov-18 16:33N 47°17' W 122°25'0 0.0
2014-Nov-17 23:33N 47°17' W 122°25'2 1.9
2014-Nov-17 22:33N 47°18' W 122°27'6 6.0
2014-Nov-17 21:33N 47°24' W 122°24'8 7.5
2014-Nov-17 20:33N 47°31' W 122°28'6 6.1
2014-Nov-17 19:33N 47°26' W 122°32'7 6.9
2014-Nov-17 18:33N 47°19' W 122°31'2 1.9
2014-Nov-17 17:33N 47°17' W 122°29'  
Track history (hours):
 
Tides and Currents Weather Stations Pressure Air Temp Water Temp Dewpoint Dewpoint Depression Visibility Wind Speed Wind Dir Waves Ship Positions

Puget

Last reported at 2014-Nov-26 19:05 UTC. Time now 2014-Nov-27 14:29 UTC.
Position N 47°33' W 122°20'.

Length 20 m; draft 0.2 m.

Type: Ship. MMSI: 369970510.

Date/timePositionNaut miles runAvg speedWind from/ knotsBaromVisibWave heightAir tempDewpointWater temp
2014-Nov-26 19:05N 47°33' W 122°20'2 4.3
2014-Nov-26 18:34N 47°35' W 122°22'7 6.8
2014-Nov-26 17:33N 47°29' W 122°23'9 8.6
2014-Nov-26 16:34N 47°20' W 122°24'3 0.2
2014-Nov-26 00:33N 47°18' W 122°26'1 0.9
2014-Nov-25 23:33N 47°18' W 122°27'0 0.3
2014-Nov-25 22:33N 47°18' W 122°26'0 0.1
2014-Nov-25 21:33N 47°18' W 122°26'4 4.1
2014-Nov-25 20:33N 47°18' W 122°32'3 2.7
2014-Nov-25 19:33N 47°20' W 122°30'3 3.1
2014-Nov-25 18:33N 47°20' W 122°25'4 4.4
2014-Nov-25 17:33N 47°16' W 122°23'1 0.6
2014-Nov-25 16:33N 47°16' W 122°22'2 0.1
2014-Nov-24 23:16N 47°17' W 122°25'3 4.7
2014-Nov-24 22:33N 47°18' W 122°29'3 3.4
2014-Nov-24 21:33N 47°20' W 122°33'6 6.0
2014-Nov-24 20:33N 47°26' W 122°32'5 5.2
2014-Nov-24 19:33N 47°31' W 122°27'7 7.1
2014-Nov-24 18:33N 47°25' W 122°21'5 5.3
2014-Nov-24 17:33N 47°20' W 122°25'3 2.9
2014-Nov-24 16:33N 47°17' W 122°25'  
2014-Nov-20 17:33N 47°16' W 122°26'0 0.4
2014-Nov-20 16:34N 47°15' W 122°26'2 0.1
2014-Nov-19 23:09N 47°17' W 122°25'1 0.9
2014-Nov-19 22:33N 47°16' W 122°24'1 0.7
2014-Nov-19 21:29N 47°17' W 122°23'0 0.1
2014-Nov-19 20:32N 47°17' W 122°23'2 1.8
2014-Nov-19 19:33N 47°18' W 122°26'3 3.0
2014-Nov-19 18:33N 47°21' W 122°27'3 2.6
2014-Nov-19 17:33N 47°21' W 122°23'4 0.2
2014-Nov-19 00:33N 47°17' W 122°25'2 1.9
2014-Nov-18 23:33N 47°15' W 122°26'5 4.5
2014-Nov-18 22:33N 47°19' W 122°30'5 4.9
2014-Nov-18 21:33N 47°15' W 122°34'7 6.4
2014-Nov-18 20:30N 47°09' W 122°38'0 0.0
2014-Nov-18 19:33N 47°09' W 122°38'7 7.1
2014-Nov-18 18:34N 47°15' W 122°34'4 4.3
2014-Nov-18 17:33N 47°18' W 122°29'3 3.1
2014-Nov-18 16:33N 47°17' W 122°25'0 0.0
2014-Nov-17 23:33N 47°17' W 122°25'2 1.9
2014-Nov-17 22:33N 47°18' W 122°27'6 6.0
2014-Nov-17 21:33N 47°24' W 122°24'8 7.5
2014-Nov-17 20:33N 47°31' W 122°28'6 6.1
2014-Nov-17 19:33N 47°26' W 122°32'7 6.9
2014-Nov-17 18:33N 47°19' W 122°31'2 1.9
2014-Nov-17 17:33N 47°17' W 122°29'  

Dump ship's entire track history